Time;durP1;ratioP1;P1;durP2;ratioP2;P2;SDS_P1;SDS_P2;PMS_P1;PMS_P2;Temp;Humidity;BMP_temperature;BMP_pressure;BME280_temperature;BME280_humidity;BME280_pressure;Samples;Min_cycle;Max_cycle;Signal;HPM_P1;HPM_P2
2021/07/11 08:27:55;;;;;;;25.80;12.53;;;30.80;61.80;;;;;;1811882;79;23399;-68
2021/07/11 08:30:22;;;;;;;24.87;12.45;;;30.30;65.80;;;;;;1784281;80;21003;-69
2021/07/11 08:32:49;;;;;;;26.33;13.48;;;30.00;67.70;;;;;;1783221;80;20986;-69
2021/07/11 08:35:16;;;;;;;27.45;13.70;;;29.60;68.90;;;;;;1767208;81;20975;-76
2021/07/11 08:37:43;;;;;;;26.97;13.28;;;29.30;69.00;;;;;;1732671;83;21495;-78
2021/07/11 08:40:12;;;;;;;25.00;13.65;;;29.00;72.20;;;;;;1732287;82;21502;-77
2021/07/11 08:42:41;;;;;;;24.00;13.30;;;28.80;73.50;;;;;;1732184;82;21019;-78
2021/07/11 08:45:11;;;;;;;21.68;12.45;;;28.60;74.60;;;;;;1732728;82;21519;-79
2021/07/11 08:47:40;;;;;;;22.13;12.53;;;28.40;74.50;;;;;;1732709;82;21010;-78
2021/07/11 08:50:11;;;;;;;19.90;11.88;;;28.30;74.50;;;;;;1732687;82;21518;-79
2021/07/11 08:52:40;;;;;;;19.45;12.23;;;28.10;75.10;;;;;;1732622;83;21055;-79
2021/07/11 08:55:21;;;;;;;20.20;12.43;;;28.00;76.70;;;;;;1732658;82;21079;-79
2021/07/11 08:57:55;;;;;;;16.35;11.78;;;27.90;77.80;;;;;;1731979;82;21118;-79
2021/07/11 09:00:27;;;;;;;15.55;12.28;;;27.80;78.70;;;;;;1732391;82;21051;-79
2021/07/11 09:02:55;;;;;;;20.37;13.00;;;27.70;79.00;;;;;;1732772;82;21145;-79
2021/07/11 09:05:30;;;;;;;16.02;12.25;;;27.70;79.50;;;;;;1732660;83;21043;-79
2021/07/11 09:08:01;;;;;;;15.18;12.25;;;27.60;79.50;;;;;;1732598;82;21015;-79
2021/07/11 09:10:45;;;;;;;17.57;11.80;;;27.50;80.30;;;;;;1732735;82;21027;-79
2021/07/11 09:13:16;;;;;;;14.70;12.23;;;27.50;80.20;;;;;;1731835;82;21042;-78
2021/07/11 09:15:48;;;;;;;19.27;12.63;;;27.50;80.60;;;;;;1732749;83;21011;-78
2021/07/11 09:18:25;;;;;;;17.12;12.35;;;27.40;80.60;;;;;;1732727;83;21063;-79
2021/07/11 09:21:00;;;;;;;15.68;11.93;;;27.40;80.70;;;;;;1732713;82;20991;-79
2021/07/11 09:23:31;;;;;;;18.17;12.73;;;27.30;81.00;;;;;;1732959;82;21063;-79
2021/07/11 09:26:05;;;;;;;14.23;12.05;;;27.30;81.10;;;;;;1732622;82;21031;-78
2021/07/11 09:28:40;;;;;;;16.60;12.25;;;27.30;80.90;;;;;;1740018;82;21054;-78
2021/07/11 09:31:15;;;;;;;15.47;11.83;;;27.30;80.70;;;;;;1700596;83;20996;-78
2021/07/11 09:33:55;;;;;;;14.80;11.97;;;27.20;81.00;;;;;;1726965;83;20994;-78
2021/07/11 09:36:24;;;;;;;17.25;11.88;;;27.30;81.20;;;;;;1726832;82;21306;-77
2021/07/11 09:38:59;;;;;;;16.07;11.57;;;27.20;81.10;;;;;;1726448;82;21030;-77
2021/07/11 09:41:33;;;;;;;15.58;11.63;;;27.20;81.20;;;;;;1726616;83;21037;-79
2021/07/11 09:44:08;;;;;;;14.18;11.28;;;27.20;81.40;;;;;;1726639;82;21009;-79
2021/07/11 09:46:36;;;;;;;12.20;10.90;;;27.20;81.70;;;;;;1726181;83;21081;-78
2021/07/11 09:49:05;;;;;;;15.65;11.12;;;27.20;81.60;;;;;;1726510;82;20993;-78
2021/07/11 09:51:32;;;;;;;13.15;11.12;;;27.20;81.50;;;;;;1709686;83;21057;-77
2021/07/11 09:54:14;;;;;;;15.38;10.93;;;27.20;81.70;;;;;;1697727;83;21001;-78
2021/07/11 09:56:46;;;;;;;14.07;10.88;;;27.20;81.90;;;;;;1697347;84;21108;-78
2021/07/11 09:59:18;;;;;;;13.18;10.90;;;27.10;81.50;;;;;;1697559;84;21520;-78
2021/07/11 10:01:45;;;;;;;15.05;11.28;;;27.20;81.70;;;;;;1697588;84;21077;-78
2021/07/11 10:04:13;;;;;;;13.45;10.35;;;27.20;82.50;;;;;;1697119;83;21104;-78
2021/07/11 10:06:41;;;;;;;13.05;10.32;;;27.20;81.60;;;;;;1697537;84;21025;-78
2021/07/11 10:09:11;;;;;;;14.35;10.82;;;27.10;81.40;;;;;;1696705;84;21013;-77
2021/07/11 10:11:45;;;;;;;15.05;10.90;;;27.20;81.70;;;;;;1697253;84;21017;-77
2021/07/11 10:14:14;;;;;;;12.95;11.00;;;27.20;81.70;;;;;;1697752;84;21056;-77
2021/07/11 10:16:45;;;;;;;12.98;10.35;;;27.10;81.60;;;;;;1697416;84;21045;-78
2021/07/11 10:19:13;;;;;;;12.88;11.22;;;27.20;81.70;;;;;;1696901;84;21073;-78
2021/07/11 10:21:44;;;;;;;11.83;10.60;;;27.20;81.90;;;;;;1697776;84;21041;-78
2021/07/11 10:24:21;;;;;;;12.63;10.48;;;27.20;81.60;;;;;;1696498;84;21481;-78
2021/07/11 10:26:49;;;;;;;12.55;10.15;;;27.20;81.50;;;;;;1694046;83;21101;-78
2021/07/11 10:29:23;;;;;;;13.88;10.95;;;27.20;81.50;;;;;;1687069;84;21620;-77
2021/07/11 10:31:52;;;;;;;13.08;10.95;;;27.20;81.40;;;;;;1687061;84;21061;-78
2021/07/11 10:34:38;;;;;;;13.35;10.75;;;27.20;81.20;;;;;;1687056;84;21042;-78
2021/07/11 10:37:17;;;;;;;12.65;11.35;;;27.20;80.90;;;;;;1687142;84;21493;-77
2021/07/11 10:39:44;;;;;;;13.50;10.90;;;27.20;81.20;;;;;;1687083;84;21541;-78
2021/07/11 10:42:12;;;;;;;12.73;10.70;;;27.20;81.10;;;;;;1686962;84;21041;-78
2021/07/11 10:44:40;;;;;;;13.88;10.43;;;27.20;80.60;;;;;;1686986;84;21534;-77
2021/07/11 10:47:08;;;;;;;11.65;10.45;;;27.20;80.50;;;;;;1686966;85;21084;-78
2021/07/11 10:49:50;;;;;;;12.75;10.10;;;27.20;80.60;;;;;;1687276;85;21054;-78
2021/07/11 10:52:24;;;;;;;13.55;10.18;;;27.20;80.40;;;;;;1687053;84;21081;-76
2021/07/11 10:54:55;;;;;;;14.03;9.93;;;27.20;80.20;;;;;;1687067;84;21083;-76
2021/07/11 10:57:36;;;;;;;11.63;10.13;;;27.20;80.00;;;;;;1686917;84;21059;-77
2021/07/11 11:00:17;;;;;;;12.07;10.25;;;27.20;80.10;;;;;;1687029;84;21029;-77
2021/07/11 11:02:48;;;;;;;12.68;10.68;;;27.20;80.00;;;;;;1686936;84;21010;-77
2021/07/11 11:05:26;;;;;;;11.50;10.00;;;27.20;79.50;;;;;;1686998;84;21069;-77
2021/07/11 11:07:58;;;;;;;13.08;10.30;;;27.20;80.20;;;;;;1686705;84;21054;-78
2021/07/11 11:10:33;;;;;;;11.55;9.65;;;27.20;79.40;;;;;;1686205;84;21085;-77
2021/07/11 11:13:17;;;;;;;10.58;9.48;;;27.20;79.10;;;;;;1687790;84;21034;-77
2021/07/11 11:15:58;;;;;;;10.55;9.45;;;27.20;79.10;;;;;;1686760;84;21030;-77
2021/07/11 11:18:33;;;;;;;12.18;9.25;;;27.30;79.00;;;;;;1677726;85;21074;-78
2021/07/11 11:21:08;;;;;;;10.23;9.03;;;27.30;78.50;;;;;;1686912;84;20994;-77
2021/07/11 11:23:39;;;;;;;10.20;9.10;;;27.30;78.00;;;;;;1684985;84;21524;-77
2021/07/11 11:26:10;;;;;;;10.55;9.00;;;27.30;78.10;;;;;;1717675;83;21081;-78
2021/07/11 11:28:41;;;;;;;11.35;9.75;;;27.30;77.50;;;;;;1716807;83;21104;-78
2021/07/11 11:31:14;;;;;;;10.03;8.98;;;27.30;78.00;;;;;;1717860;83;21526;-78
2021/07/11 11:34:01;;;;;;;10.72;9.35;;;27.30;77.00;;;;;;1717919;83;21017;-77
2021/07/11 11:36:45;;;;;;;9.45;8.45;;;27.30;76.90;;;;;;1718029;83;21464;-76
2021/07/11 11:39:24;;;;;;;10.60;9.00;;;27.30;76.30;;;;;;1717649;83;21030;-77
2021/07/11 11:41:52;;;;;;;11.60;8.73;;;27.30;76.40;;;;;;1717406;83;21093;-77
2021/07/11 11:44:25;;;;;;;9.78;8.58;;;27.30;75.90;;;;;;1717960;83;21552;-77
2021/07/11 11:46:57;;;;;;;10.48;8.88;;;27.30;75.80;;;;;;1717818;83;21029;-78
2021/07/11 11:49:29;;;;;;;10.03;8.95;;;27.30;75.30;;;;;;1717664;83;21013;-78
2021/07/11 11:52:02;;;;;;;9.75;8.75;;;27.40;74.80;;;;;;1718100;83;21073;-78
2021/07/11 11:54:37;;;;;;;9.10;8.10;;;27.40;75.20;;;;;;1717838;83;21005;-78
2021/07/11 11:57:07;;;;;;;9.45;8.45;;;27.40;74.50;;;;;;1717985;83;21017;-78
2021/07/11 11:59:36;;;;;;;10.28;8.33;;;27.40;74.90;;;;;;1717855;83;21520;-78
2021/07/11 12:02:10;;;;;;;9.23;8.30;;;27.40;74.20;;;;;;1717882;83;21013;-78
2021/07/11 12:04:38;;;;;;;8.90;7.90;;;27.40;74.40;;;;;;1718059;83;21496;-77
2021/07/11 12:07:09;;;;;;;8.55;7.65;;;27.40;73.80;;;;;;1718019;83;21025;-76
2021/07/11 12:09:36;;;;;;;8.83;7.65;;;27.40;74.20;;;;;;1717765;83;21089;-77
2021/07/11 12:12:11;;;;;;;9.08;7.78;;;27.40;73.70;;;;;;1718052;83;21048;-78
2021/07/11 12:14:43;;;;;;;8.53;7.62;;;27.40;73.60;;;;;;1717827;83;21521;-77
2021/07/11 12:17:16;;;;;;;9.55;8.08;;;27.40;73.40;;;;;;1718034;83;20985;-77
2021/07/11 12:19:54;;;;;;;9.55;7.70;;;27.40;73.40;;;;;;1717813;83;21026;-77
2021/07/11 12:22:29;;;;;;;9.05;7.83;;;27.50;73.40;;;;;;1717951;83;20993;-78
2021/07/11 12:25:25;;;;;;;8.68;7.42;;;27.50;73.20;;;;;;1718071;83;21100;-77
2021/07/11 12:27:56;;;;;;;8.20;7.40;;;27.50;73.00;;;;;;1716511;83;21575;-77
2021/07/11 12:30:20;;;;;;;8.68;7.78;;;27.50;73.00;;;;;;1716885;83;21049;-77
2021/07/11 12:32:51;;;;;;;8.53;7.70;;;27.50;73.00;;;;;;1717778;83;21584;-78
2021/07/11 12:35:26;;;;;;;10.35;7.87;;;27.50;72.90;;;;;;1717795;83;21508;-78
2021/07/11 12:38:01;;;;;;;8.20;7.30;;;27.50;72.80;;;;;;1717095;83;21073;-78
2021/07/11 12:40:31;;;;;;;9.45;8.08;;;27.50;72.70;;;;;;1718044;83;21041;-77
2021/07/11 12:43:17;;;;;;;9.23;7.72;;;27.50;72.60;;;;;;1717683;83;21100;-77
2021/07/11 12:45:41;;;;;;;8.58;7.67;;;27.50;72.50;;;;;;1717486;83;21462;-77
2021/07/11 12:48:08;;;;;;;8.83;7.85;;;27.50;72.40;;;;;;1717898;83;21002;-78
2021/07/11 12:50:44;;;;;;;9.25;7.90;;;27.50;72.10;;;;;;1718019;83;21022;-78
2021/07/11 12:53:11;;;;;;;8.58;7.67;;;27.60;72.00;;;;;;1717808;83;20997;-78
2021/07/11 12:55:40;;;;;;;8.63;7.58;;;27.60;71.90;;;;;;1717919;83;21100;-78
2021/07/11 12:58:15;;;;;;;8.35;7.40;;;27.60;71.80;;;;;;1717905;83;21068;-78
2021/07/11 13:00:44;;;;;;;8.65;7.58;;;27.60;71.70;;;;;;1697250;83;21513;-78
2021/07/11 13:03:11;;;;;;;8.05;7.25;;;27.60;71.80;;;;;;1717939;83;21029;-77
2021/07/11 13:05:42;;;;;;;8.78;7.58;;;27.60;71.80;;;;;;1717964;83;21025;-77
2021/07/11 13:08:13;;;;;;;9.23;8.23;;;27.60;71.60;;;;;;1717970;83;21548;-77
2021/07/11 13:10:43;;;;;;;8.70;7.85;;;27.60;71.40;;;;;;1717933;83;21540;-78
2021/07/11 13:13:12;;;;;;;8.43;7.53;;;27.60;71.40;;;;;;1717981;83;21495;-78
2021/07/11 13:15:41;;;;;;;8.88;7.78;;;27.60;71.40;;;;;;1717963;83;21036;-77
2021/07/11 13:18:14;;;;;;;8.48;7.42;;;27.60;71.40;;;;;;1718053;83;21057;-78
2021/07/11 13:20:43;;;;;;;9.45;8.25;;;27.60;71.40;;;;;;1718017;83;21029;-78
2021/07/11 13:23:10;;;;;;;8.90;8.00;;;27.60;71.30;;;;;;1717996;83;21053;-78
2021/07/11 13:25:38;;;;;;;8.40;7.60;;;27.60;71.20;;;;;;1718237;83;21014;-77
2021/07/11 13:28:05;;;;;;;9.55;7.67;;;27.60;71.20;;;;;;1716930;83;21014;-78
2021/07/11 13:30:33;;;;;;;8.55;7.65;;;27.60;71.10;;;;;;1727363;82;21479;-77
2021/07/11 13:33:01;;;;;;;9.98;8.50;;;27.60;71.10;;;;;;1727204;82;20995;-78
2021/07/11 13:35:29;;;;;;;8.95;8.03;;;27.60;71.00;;;;;;1727204;82;21072;-78
2021/07/11 13:37:56;;;;;;;8.98;8.08;;;27.60;70.90;;;;;;1727325;82;20992;-78
2021/07/11 13:40:24;;;;;;;8.30;7.50;;;27.60;70.90;;;;;;1727307;82;21027;-78
2021/07/11 13:42:51;;;;;;;8.15;7.35;;;27.60;70.90;;;;;;1727218;82;21042;-78
2021/07/11 13:45:20;;;;;;;9.70;7.72;;;27.60;70.90;;;;;;1727300;82;21003;-78
2021/07/11 13:47:48;;;;;;;8.90;8.00;;;27.60;70.90;;;;;;1727120;82;21039;-79
2021/07/11 13:50:18;;;;;;;8.45;7.58;;;27.60;70.80;;;;;;1727341;83;21019;-78
2021/07/11 13:52:46;;;;;;;9.20;8.15;;;27.60;70.80;;;;;;1727186;82;21143;-77
2021/07/11 13:55:18;;;;;;;8.38;7.50;;;27.60;70.80;;;;;;1727233;82;21019;-77
2021/07/11 13:57:47;;;;;;;8.18;7.30;;;27.70;70.90;;;;;;1727314;83;21043;-77
2021/07/11 14:00:17;;;;;;;9.20;8.25;;;27.70;71.10;;;;;;1727145;82;21040;-77
2021/07/11 14:02:45;;;;;;;9.05;8.15;;;27.60;70.80;;;;;;1727143;82;21031;-78
2021/07/11 14:05:14;;;;;;;9.00;8.00;;;27.70;70.80;;;;;;1727179;82;21072;-78
2021/07/11 14:07:43;;;;;;;8.98;8.08;;;27.60;70.70;;;;;;1727497;83;21123;-78
2021/07/11 14:10:11;;;;;;;9.08;8.00;;;27.70;70.80;;;;;;1727379;83;21455;-78
2021/07/11 14:12:38;;;;;;;9.90;7.85;;;27.60;70.70;;;;;;1727368;82;21004;-78
2021/07/11 14:15:10;;;;;;;8.68;7.87;;;27.70;70.70;;;;;;1727281;82;21436;-78
2021/07/11 14:17:39;;;;;;;8.40;7.35;;;27.70;71.30;;;;;;1727186;82;20984;-79
2021/07/11 14:20:07;;;;;;;8.63;7.60;;;27.70;70.60;;;;;;1727165;82;21475;-78
2021/07/11 14:22:35;;;;;;;9.60;8.08;;;27.70;70.50;;;;;;1727312;82;21518;-78
2021/07/11 14:25:05;;;;;;;9.58;8.18;;;27.70;70.50;;;;;;1727145;82;21027;-78
2021/07/11 14:27:33;;;;;;;9.08;8.15;;;27.80;70.60;;;;;;1727175;83;21039;-78
2021/07/11 14:30:00;;;;;;;10.68;8.33;;;27.80;70.50;;;;;;1720068;82;21084;-78
2021/07/11 14:32:27;;;;;;;11.93;8.13;;;27.80;70.40;;;;;;1719217;82;21511;-78
2021/07/11 14:34:54;;;;;;;8.88;7.97;;;27.80;70.40;;;;;;1719521;82;21492;-78
2021/07/11 14:37:21;;;;;;;9.75;8.05;;;27.90;71.10;;;;;;1719360;83;21012;-78
2021/07/11 14:39:47;;;;;;;9.33;8.20;;;27.90;70.50;;;;;;1719735;82;21020;-78
2021/07/11 14:42:14;;;;;;;9.45;7.95;;;27.90;70.50;;;;;;1719550;82;21047;-78
2021/07/11 14:44:41;;;;;;;8.90;8.00;;;27.90;70.40;;;;;;1719533;82;21504;-78
2021/07/11 14:47:08;;;;;;;9.15;7.75;;;27.90;70.40;;;;;;1719484;82;21020;-77
2021/07/11 14:49:39;;;;;;;10.00;7.83;;;27.90;70.40;;;;;;1719459;83;21500;-79
2021/07/11 14:52:10;;;;;;;9.80;8.23;;;27.90;70.30;;;;;;1719565;83;21063;-78
2021/07/11 14:54:39;;;;;;;9.18;8.20;;;28.00;70.30;;;;;;1719331;83;21035;-78
2021/07/11 14:57:08;;;;;;;8.80;7.78;;;28.00;70.30;;;;;;1719571;82;21007;-79
2021/07/11 14:59:37;;;;;;;9.33;8.05;;;28.00;70.20;;;;;;1719194;82;21008;-77
2021/07/11 15:02:06;;;;;;;10.55;8.15;;;28.00;70.30;;;;;;1719457;82;21507;-77
2021/07/11 15:04:33;;;;;;;8.75;7.78;;;28.00;70.30;;;;;;1719325;82;21511;-77
2021/07/11 15:07:00;;;;;;;8.80;7.90;;;28.00;70.20;;;;;;1719455;82;21051;-77
2021/07/11 15:09:27;;;;;;;8.95;8.03;;;28.00;70.20;;;;;;1719521;83;20993;-77
2021/07/11 15:11:54;;;;;;;8.33;7.45;;;28.00;70.20;;;;;;1719533;82;20965;-76
2021/07/11 15:14:21;;;;;;;8.73;7.83;;;28.10;70.20;;;;;;1719478;83;21028;-77
2021/07/11 15:16:48;;;;;;;9.23;7.87;;;28.10;70.20;;;;;;1719548;82;20995;-76
2021/07/11 15:19:14;;;;;;;8.58;7.67;;;28.10;70.20;;;;;;1719451;83;21502;-77
2021/07/11 15:21:41;;;;;;;10.32;7.87;;;28.10;70.10;;;;;;1719471;82;21035;-78
2021/07/11 15:24:09;;;;;;;9.18;7.75;;;28.10;70.00;;;;;;1715385;82;21077;-76
2021/07/11 15:26:37;;;;;;;9.03;7.12;;;28.10;69.90;;;;;;1689279;84;21592;-77
2021/07/11 15:29:06;;;;;;;9.78;7.53;;;28.10;69.90;;;;;;1689039;84;21037;-77
2021/07/11 15:31:35;;;;;;;8.98;7.37;;;28.10;69.80;;;;;;1693337;84;21504;-77
2021/07/11 15:34:12;;;;;;;7.95;7.17;;;28.10;69.70;;;;;;1696357;84;21048;-78
2021/07/11 15:36:43;;;;;;;8.60;7.47;;;28.10;69.70;;;;;;1686864;84;21086;-78
2021/07/11 15:39:11;;;;;;;8.28;7.28;;;28.10;69.70;;;;;;1696615;84;21041;-78
2021/07/11 15:41:38;;;;;;;8.40;7.60;;;28.10;69.60;;;;;;1696621;84;21045;-78
2021/07/11 15:44:08;;;;;;;8.20;7.15;;;28.10;69.60;;;;;;1696649;84;21006;-78
2021/07/11 15:46:35;;;;;;;8.78;7.42;;;28.10;69.50;;;;;;1696087;84;21049;-78
2021/07/11 15:49:02;;;;;;;8.00;6.92;;;28.10;69.40;;;;;;1696937;84;21039;-78
2021/07/11 15:51:29;;;;;;;8.25;7.35;;;28.10;69.20;;;;;;1696731;84;21077;-78
2021/07/11 15:53:56;;;;;;;7.95;7.03;;;28.10;69.00;;;;;;1696686;85;21029;-78
2021/07/11 15:56:23;;;;;;;7.42;6.72;;;28.10;69.00;;;;;;1696710;85;21021;-77
2021/07/11 15:58:49;;;;;;;8.30;7.12;;;28.10;69.00;;;;;;1696683;85;21591;-77
2021/07/11 16:01:16;;;;;;;7.97;7.17;;;28.10;68.90;;;;;;1696521;84;20999;-77
2021/07/11 16:03:43;;;;;;;9.03;7.35;;;28.10;68.80;;;;;;1696751;85;21014;-78
2021/07/11 16:06:09;;;;;;;8.60;7.45;;;28.10;68.80;;;;;;1696662;84;21069;-77
2021/07/11 16:08:36;;;;;;;8.38;6.97;;;28.10;68.90;;;;;;1696770;84;21525;-77
2021/07/11 16:11:03;;;;;;;8.58;7.15;;;28.10;68.90;;;;;;1696711;84;21065;-78
2021/07/11 16:13:30;;;;;;;8.15;6.70;;;28.10;69.00;;;;;;1696749;85;20970;-77
2021/07/11 16:15:57;;;;;;;7.78;6.95;;;28.10;68.90;;;;;;1696694;84;21532;-77
2021/07/11 16:18:23;;;;;;;7.92;7.12;;;28.10;68.90;;;;;;1696741;84;21101;-77
2021/07/11 16:20:50;;;;;;;7.70;6.67;;;28.10;68.90;;;;;;1696596;85;21026;-77
2021/07/11 16:23:17;;;;;;;8.58;7.00;;;28.10;69.00;;;;;;1696741;84;21524;-78
2021/07/11 16:25:45;;;;;;;7.92;7.12;;;28.10;69.00;;;;;;1696697;84;21005;-77
2021/07/11 16:28:12;;;;;;;8.00;7.20;;;28.10;69.10;;;;;;1696658;84;21068;-77
2021/07/11 16:30:39;;;;;;;7.85;7.05;;;28.10;69.20;;;;;;1696296;84;21536;-77
2021/07/11 16:33:06;;;;;;;8.33;7.00;;;28.00;69.10;;;;;;1696720;85;21033;-77
2021/07/11 16:35:34;;;;;;;8.00;7.05;;;28.00;69.10;;;;;;1696637;84;21037;-78
2021/07/11 16:38:04;;;;;;;8.63;7.05;;;28.00;69.10;;;;;;1696563;85;21041;-77
2021/07/11 16:40:31;;;;;;;7.50;6.80;;;28.00;69.10;;;;;;1696387;84;21466;-77
2021/07/11 16:43:01;;;;;;;8.05;7.10;;;28.00;69.20;;;;;;1696694;84;21477;-78
2021/07/11 16:45:28;;;;;;;7.70;6.90;;;28.00;69.20;;;;;;1696610;84;21041;-78
2021/07/11 16:47:55;;;;;;;8.85;7.03;;;28.00;69.20;;;;;;1696697;84;21073;-78
2021/07/11 16:50:22;;;;;;;7.53;6.70;;;28.00;69.30;;;;;;1696813;84;21036;-78
2021/07/11 16:52:49;;;;;;;7.95;7.03;;;28.00;69.30;;;;;;1696856;84;21021;-78
2021/07/11 16:55:15;;;;;;;7.53;6.83;;;28.00;69.40;;;;;;1696865;84;20978;-78
2021/07/11 16:57:42;;;;;;;7.55;6.85;;;28.00;69.50;;;;;;1696868;84;20998;-78
2021/07/11 17:00:14;;;;;;;8.23;7.10;;;28.00;69.50;;;;;;1696537;84;21076;-78
2021/07/11 17:02:41;;;;;;;8.40;6.97;;;28.00;69.50;;;;;;1696714;85;21037;-78
2021/07/11 17:05:12;;;;;;;8.80;6.92;;;27.90;69.50;;;;;;1696726;84;21100;-78
2021/07/11 17:07:38;;;;;;;7.67;6.87;;;28.00;69.70;;;;;;1696824;84;21006;-78
2021/07/11 17:10:10;;;;;;;7.75;7.03;;;28.00;69.70;;;;;;1696836;84;21016;-78
2021/07/11 17:12:37;;;;;;;7.65;6.85;;;28.00;69.80;;;;;;1696871;84;21061;-78
2021/07/11 17:15:10;;;;;;;8.13;6.70;;;27.90;69.70;;;;;;1696881;85;21048;-78
2021/07/11 17:17:38;;;;;;;7.92;6.90;;;27.90;69.80;;;;;;1696756;85;21056;-78
2021/07/11 17:20:08;;;;;;;9.23;7.30;;;27.90;69.80;;;;;;1696818;84;20993;-78
2021/07/11 17:22:36;;;;;;;7.47;6.67;;;27.90;69.90;;;;;;1696853;84;21457;-78
2021/07/11 17:25:05;;;;;;;8.80;7.42;;;27.90;69.90;;;;;;1696880;84;21026;-78
2021/07/11 17:27:32;;;;;;;8.40;6.87;;;27.90;70.00;;;;;;1696906;84;21497;-78
2021/07/11 17:29:59;;;;;;;10.40;6.97;;;27.90;70.10;;;;;;1700909;83;21057;-77
2021/07/11 17:32:26;;;;;;;9.98;6.87;;;27.90;70.10;;;;;;1691499;84;21021;-78
2021/07/11 17:34:55;;;;;;;8.23;7.33;;;27.90;70.20;;;;;;1689340;84;21481;-78
2021/07/11 17:37:23;;;;;;;7.75;6.95;;;27.90;70.90;;;;;;1689379;84;21050;-78
2021/07/11 17:39:51;;;;;;;7.45;6.65;;;27.90;70.20;;;;;;1689333;84;21010;-78
2021/07/11 17:42:19;;;;;;;7.92;6.70;;;27.90;70.40;;;;;;1689381;84;21097;-78
2021/07/11 17:44:46;;;;;;;7.78;7.00;;;27.90;70.50;;;;;;1689307;84;21089;-78
2021/07/11 17:47:14;;;;;;;8.00;6.50;;;27.90;70.50;;;;;;1689212;84;21045;-78
2021/07/11 17:49:40;;;;;;;7.75;6.95;;;27.90;70.60;;;;;;1689276;84;21528;-80
2021/07/11 17:52:08;;;;;;;7.83;6.92;;;27.90;70.60;;;;;;1689411;84;21022;-78
2021/07/11 17:54:35;;;;;;;9.05;6.95;;;27.90;70.70;;;;;;1689327;84;21045;-78
2021/07/11 17:57:02;;;;;;;8.68;7.45;;;27.80;70.60;;;;;;1689364;84;21552;-78
2021/07/11 17:59:29;;;;;;;7.85;7.08;;;27.90;70.70;;;;;;1689159;85;21018;-79
2021/07/11 18:01:55;;;;;;;7.95;6.87;;;27.90;70.70;;;;;;1689356;85;21485;-79
2021/07/11 18:04:22;;;;;;;9.53;7.15;;;27.80;70.50;;;;;;1689390;84;21018;-79
2021/07/11 18:06:49;;;;;;;8.28;6.92;;;27.90;70.50;;;;;;1689243;84;21026;-78
2021/07/11 18:09:17;;;;;;;8.15;6.83;;;27.90;70.40;;;;;;1689487;84;21525;-78
2021/07/11 18:11:46;;;;;;;12.05;6.70;;;27.90;70.40;;;;;;1689262;84;21026;-79
2021/07/11 18:14:13;;;;;;;8.73;7.35;;;27.90;70.20;;;;;;1689246;84;21002;-79
2021/07/11 18:16:41;;;;;;;9.18;6.65;;;27.80;70.10;;;;;;1689351;84;21030;-79
2021/07/11 18:19:07;;;;;;;9.45;7.25;;;27.80;69.90;;;;;;1689219;84;21061;-78
2021/07/11 18:21:34;;;;;;;10.38;7.47;;;27.80;69.70;;;;;;1689310;84;21501;-79
2021/07/11 18:24:02;;;;;;;8.98;7.35;;;27.80;69.70;;;;;;1689272;84;21013;-79
2021/07/11 18:26:29;;;;;;;9.50;7.42;;;27.80;70.00;;;;;;1689298;84;21042;-79
2021/07/11 18:28:55;;;;;;;11.22;7.17;;;27.80;70.10;;;;;;1689325;84;21512;-78
2021/07/11 18:31:22;;;;;;;10.32;7.12;;;27.80;69.30;;;;;;1688968;84;21710;-78
2021/07/11 18:33:49;;;;;;;9.55;6.92;;;27.80;69.00;;;;;;1689377;84;21101;-78
2021/07/11 18:36:20;;;;;;;8.33;7.12;;;27.80;68.90;;;;;;1689288;84;21018;-78
2021/07/11 18:38:45;;;;;;;11.15;7.12;;;27.80;68.70;;;;;;1689284;84;21502;-79
2021/07/11 18:41:12;;;;;;;9.65;7.15;;;27.80;68.50;;;;;;1689205;85;21022;-78
2021/07/11 18:43:39;;;;;;;9.65;7.12;;;27.80;68.50;;;;;;1689437;84;21030;-78
2021/07/11 18:46:08;;;;;;;10.68;6.95;;;27.70;67.80;;;;;;1689778;84;20992;-78
2021/07/11 18:48:34;;;;;;;8.63;7.05;;;27.80;68.30;;;;;;1689348;84;21065;-78
2021/07/11 18:51:01;;;;;;;9.23;7.53;;;27.70;67.80;;;;;;1689292;84;21045;-78
2021/07/11 18:53:30;;;;;;;9.63;7.08;;;27.70;68.20;;;;;;1689293;84;21520;-78
2021/07/11 18:55:58;;;;;;;8.28;6.70;;;27.70;68.10;;;;;;1689364;84;21005;-78
2021/07/11 18:58:24;;;;;;;8.95;7.33;;;27.70;67.90;;;;;;1689297;84;21485;-79
2021/07/11 19:00:51;;;;;;;9.38;7.85;;;27.70;67.60;;;;;;1689317;85;21037;-78
2021/07/11 19:03:18;;;;;;;14.73;7.75;;;27.70;67.50;;;;;;1689511;84;21017;-79
2021/07/11 19:05:47;;;;;;;10.03;8.00;;;27.70;67.00;;;;;;1689290;84;21560;-79
2021/07/11 19:08:14;;;;;;;9.75;8.03;;;27.70;67.10;;;;;;1689184;85;21053;-78
2021/07/11 19:10:41;;;;;;;10.18;7.37;;;27.70;67.30;;;;;;1689307;84;21045;-78
2021/07/11 19:13:08;;;;;;;9.48;6.97;;;27.70;67.00;;;;;;1689421;84;21157;-78
2021/07/11 19:15:37;;;;;;;10.63;7.40;;;27.70;67.80;;;;;;1689324;84;20997;-78
2021/07/11 19:18:05;;;;;;;10.93;7.65;;;27.70;67.40;;;;;;1689164;84;21076;-78
2021/07/11 19:20:32;;;;;;;12.10;8.25;;;27.70;67.10;;;;;;1689238;84;21052;-78
2021/07/11 19:23:00;;;;;;;9.88;7.72;;;27.70;66.70;;;;;;1689184;85;21077;-78
2021/07/11 19:25:33;;;;;;;11.57;7.95;;;27.70;66.00;;;;;;1689521;84;21767;-78
2021/07/11 19:28:01;;;;;;;13.90;8.43;;;27.60;66.90;;;;;;1689265;85;21006;-78
2021/07/11 19:30:30;;;;;;;12.90;7.87;;;27.70;66.20;;;;;;1689264;84;21580;-78
2021/07/11 19:32:57;;;;;;;10.10;7.03;;;27.60;66.70;;;;;;1688909;84;21045;-79
2021/07/11 19:35:24;;;;;;;10.25;7.37;;;27.60;66.30;;;;;;1701015;83;21041;-79
2021/07/11 19:37:55;;;;;;;10.78;7.85;;;27.60;66.20;;;;;;1717851;83;21017;-79
2021/07/11 19:40:28;;;;;;;10.75;8.30;;;27.60;66.20;;;;;;1717871;83;21025;-79
2021/07/11 19:42:56;;;;;;;11.28;7.92;;;27.60;66.10;;;;;;1718023;83;21073;-79
2021/07/11 19:45:26;;;;;;;12.53;7.10;;;27.60;66.10;;;;;;1717844;83;21461;-79
2021/07/11 19:47:59;;;;;;;12.85;7.80;;;27.60;66.20;;;;;;1717815;83;21084;-79
2021/07/11 19:50:28;;;;;;;11.38;7.35;;;27.60;67.20;;;;;;1717876;83;21009;-79
2021/07/11 19:52:55;;;;;;;10.10;7.90;;;27.60;66.40;;;;;;1717784;83;21485;-79
2021/07/11 19:55:22;;;;;;;11.18;7.62;;;27.60;66.30;;;;;;1717886;83;21581;-78
2021/07/11 19:57:49;;;;;;;10.93;7.72;;;27.60;66.40;;;;;;1717732;83;21048;-78
2021/07/11 20:00:20;;;;;;;13.53;7.92;;;27.50;66.40;;;;;;1717898;83;21021;-78
2021/07/11 20:02:47;;;;;;;11.80;7.33;;;27.50;66.30;;;;;;1717983;83;21107;-78
2021/07/11 20:05:16;;;;;;;9.55;6.92;;;27.50;66.20;;;;;;1717875;83;20997;-78
2021/07/11 20:07:45;;;;;;;11.95;7.40;;;27.50;66.40;;;;;;1717754;83;21521;-79
2021/07/11 20:10:15;;;;;;;18.77;8.10;;;27.40;66.40;;;;;;1717816;83;21036;-79
2021/07/11 20:12:42;;;;;;;11.65;7.30;;;27.50;66.80;;;;;;1717822;83;21469;-79
2021/07/11 20:15:11;;;;;;;11.08;7.30;;;27.50;66.80;;;;;;1717919;83;21017;-79
2021/07/11 20:17:39;;;;;;;10.23;6.72;;;27.40;66.90;;;;;;1717891;83;21064;-79
2021/07/11 20:20:10;;;;;;;10.30;7.30;;;27.40;66.90;;;;;;1717860;83;20986;-79
2021/07/11 20:22:37;;;;;;;11.65;7.05;;;27.40;66.90;;;;;;1717750;83;21486;-79
2021/07/11 20:25:07;;;;;;;12.68;7.12;;;27.40;66.90;;;;;;1717841;83;21013;-79
2021/07/11 20:27:33;;;;;;;11.97;6.78;;;27.40;66.10;;;;;;1717918;83;21045;-79
2021/07/11 20:30:01;;;;;;;10.20;6.35;;;27.40;66.10;;;;;;1717944;83;21037;-79
2021/07/11 20:32:28;;;;;;;11.03;7.40;;;27.40;66.10;;;;;;1720419;83;21041;-79
2021/07/11 20:34:55;;;;;;;13.28;7.10;;;27.40;65.70;;;;;;1725664;83;20981;-79
2021/07/11 20:37:23;;;;;;;14.98;7.15;;;27.40;65.40;;;;;;1725547;83;21036;-79
2021/07/11 20:39:50;;;;;;;8.60;6.45;;;27.40;65.50;;;;;;1725645;83;21052;-79
2021/07/11 20:42:17;;;;;;;11.18;6.50;;;27.40;65.30;;;;;;1725630;83;21073;-79
2021/07/11 20:44:45;;;;;;;12.70;6.72;;;27.30;64.80;;;;;;1725637;83;21041;-79
2021/07/11 20:47:13;;;;;;;11.75;6.62;;;27.30;65.00;;;;;;1725505;83;21072;-78
2021/07/11 20:49:40;;;;;;;13.32;7.50;;;27.30;65.10;;;;;;1725370;83;21536;-79
2021/07/11 20:52:07;;;;;;;9.40;6.87;;;27.30;65.10;;;;;;1725569;83;21528;-79
2021/07/11 20:54:33;;;;;;;11.57;7.90;;;27.30;65.30;;;;;;1725579;83;21507;-78
2021/07/11 20:57:00;;;;;;;10.15;7.47;;;27.30;66.00;;;;;;1725516;83;21035;-79
2021/07/11 20:59:27;;;;;;;12.10;6.90;;;27.30;65.20;;;;;;1725591;83;21032;-79
2021/07/11 21:01:55;;;;;;;13.05;7.47;;;27.30;65.30;;;;;;1725618;83;20997;-79
2021/07/11 21:04:21;;;;;;;10.30;7.62;;;27.30;65.40;;;;;;1725625;83;21486;-79
2021/07/11 21:06:48;;;;;;;11.65;7.50;;;27.30;65.70;;;;;;1725556;83;21119;-80
2021/07/11 21:09:18;;;;;;;8.18;6.87;;;27.30;65.60;;;;;;1696919;83;20965;-80
2021/07/11 21:11:46;;;;;;;8.68;6.75;;;27.30;65.80;;;;;;1725089;83;21028;-79
2021/07/11 21:14:14;;;;;;;14.05;7.45;;;27.20;65.60;;;;;;1725545;83;21021;-79
2021/07/11 21:16:42;;;;;;;11.55;6.67;;;27.30;65.30;;;;;;1725396;83;20993;-79
2021/07/11 21:19:09;;;;;;;11.63;7.47;;;27.20;65.30;;;;;;1725502;83;21056;-79